KDAA

Details ICAO KDAA
Name DAVISON AAF
Region United States
Timezone America/New_York (UTC-5.0)
Plans Departing 7
Arriving 7
Stats Elevation 73 ft / 22 m (AMSL)
Location 38.715111° -77.181145°
Runways 1
Magnetic Variation 10.709° W
Sunrise 2017-12-17 12:22:26 UTC / 2017-12-17 07:22:26 Local
Sunset 2017-12-17 21:50:12 UTC / 2017-12-17 16:50:12 Local
Advertisement - Login to hide

Runways

ID Width Length Bearing (true) Bearing (mag) Surface Threshold Offset Overrun Length
14 74 ft / 23 m 5,618 ft / 1,712 m 133.59° 144.30° Asphalt 687 ft / 209 m 500 ft / 152 m
32 74 ft / 23 m 5,618 ft / 1,712 m 313.60° 324.31° Asphalt 891 ft / 272 m 200 ft / 61 m

Approach Navaids

Runway Type Ident Frequency Range Bearing (true) Bearing (mag) Slope Elevation
32 Localiser IDAA 108.90 MHz 18 nm / 33 km 313.58° 324.29° - 50 ft / 15 m (AMSL)
32 Glidescope IDAA 108.90 MHz 10 nm / 19 km 313.60° 324.31° 3.00° 57 ft / 17 m (AMSL)

Map

Weather


0- 5 10 15 20 25 30 35+ Temperature / ° C

Clouds and Precipitation
Forecast for 2017-12-17 12:00 UTC. Updated an hour ago

Ground ~20,000 ft ~40,000 ft Winds

METAR

KDAA 170756Z AUTO 00000KT 10SM CLR M04/M05 A3025 RMK AO2 SLP248 T10391055 $

TAF

Not found

Frequencies

Recorded 128.17 MHz ATIS
Ground 121.90 MHz GND
Approach 119.85 MHz POTOMAC APP
Unicom 126.30 MHz CTAF
Tower 126.30 MHz TWR
Departure 118.10 MHz POTOMAC DEP
Warning: Do not use this data for real-world aviation or navigation. No guarantee of current accuracy is given.